sensor_id;sensor_type;location;lat;lon;timestamp;pressure;altitude;pressure_sealevel;temperature;humidity
16355;BME280;8287;51.644;8.494;2023-04-01T00:01:12;98255.22;;;12.57;79.27
16355;BME280;8287;51.644;8.494;2023-04-01T00:03:40;98255.28;;;12.64;79.42
16355;BME280;8287;51.644;8.494;2023-04-01T00:06:06;98251.81;;;12.56;79.36
16355;BME280;8287;51.644;8.494;2023-04-01T00:08:33;98246.81;;;12.48;79.27
16355;BME280;8287;51.644;8.494;2023-04-01T00:10:59;98252.22;;;12.58;79.31
16355;BME280;8287;51.644;8.494;2023-04-01T00:13:26;98249.97;;;12.64;79.16
16355;BME280;8287;51.644;8.494;2023-04-01T00:15:54;98248.91;;;12.72;78.82
16355;BME280;8287;51.644;8.494;2023-04-01T00:18:22;98242.38;;;12.62;79.23
16355;BME280;8287;51.644;8.494;2023-04-01T00:20:49;98244.31;;;12.69;79.21
16355;BME280;8287;51.644;8.494;2023-04-01T00:23:17;98246.59;;;12.67;79.22
16355;BME280;8287;51.644;8.494;2023-04-01T00:25:45;98250.06;;;12.74;78.38
16355;BME280;8287;51.644;8.494;2023-04-01T00:28:13;98250.38;;;12.66;78.60
16355;BME280;8287;51.644;8.494;2023-04-01T00:30:39;98230.25;;;12.65;78.60
16355;BME280;8287;51.644;8.494;2023-04-01T00:33:07;98234.81;;;12.68;78.03
16355;BME280;8287;51.644;8.494;2023-04-01T00:35:34;98240.53;;;12.70;78.44
16355;BME280;8287;51.644;8.494;2023-04-01T00:38:01;98238.56;;;12.60;78.89
16355;BME280;8287;51.644;8.494;2023-04-01T00:40:30;98235.53;;;12.61;78.55
16355;BME280;8287;51.644;8.494;2023-04-01T00:42:57;98232.13;;;12.64;77.86
16355;BME280;8287;51.644;8.494;2023-04-01T00:45:31;98234.03;;;12.64;78.28
16355;BME280;8287;51.644;8.494;2023-04-01T00:48:00;98231.78;;;12.66;77.70
16355;BME280;8287;51.644;8.494;2023-04-01T00:50:30;98228.34;;;12.62;78.05
16355;BME280;8287;51.644;8.494;2023-04-01T00:52:58;98222.66;;;12.67;77.69
16355;BME280;8287;51.644;8.494;2023-04-01T00:55:27;98215.41;;;12.60;77.11
16355;BME280;8287;51.644;8.494;2023-04-01T00:57:56;98221.16;;;12.66;77.33
16355;BME280;8287;51.644;8.494;2023-04-01T01:00:25;98223.06;;;12.69;76.23
16355;BME280;8287;51.644;8.494;2023-04-01T01:02:52;98230.63;;;12.67;76.71
16355;BME280;8287;51.644;8.494;2023-04-01T01:05:27;98224.94;;;12.65;76.95
16355;BME280;8287;51.644;8.494;2023-04-01T01:08:03;98227.16;;;12.56;76.78
16355;BME280;8287;51.644;8.494;2023-04-01T01:10:34;98226.78;;;12.61;77.30
16355;BME280;8287;51.644;8.494;2023-04-01T01:13:10;98223.03;;;12.65;77.21
16355;BME280;8287;51.644;8.494;2023-04-01T01:15:43;98221.44;;;12.57;76.86
16355;BME280;8287;51.644;8.494;2023-04-01T01:18:19;98219.19;;;12.56;77.76
16355;BME280;8287;51.644;8.494;2023-04-01T01:26:56;98208.81;;;12.44;78.94
16355;BME280;8287;51.644;8.494;2023-04-01T01:29:59;98206.13;;;12.40;79.08
16355;BME280;8287;51.644;8.494;2023-04-01T01:32:55;98218.19;;;12.31;79.83
16355;BME280;8287;51.644;8.494;2023-04-01T01:35:31;98209.19;;;12.42;79.77
16355;BME280;8287;51.644;8.494;2023-04-01T01:38:03;98206.91;;;12.41;79.87
16355;BME280;8287;51.644;8.494;2023-04-01T01:40:32;98208.75;;;12.33;79.49
16355;BME280;8287;51.644;8.494;2023-04-01T01:43:05;98204.56;;;12.36;79.75
16355;BME280;8287;51.644;8.494;2023-04-01T01:45:33;98206.44;;;12.32;79.17
16355;BME280;8287;51.644;8.494;2023-04-01T01:48:05;98206.13;;;12.37;79.80
16355;BME280;8287;51.644;8.494;2023-04-01T01:50:36;98212.88;;;12.31;79.15
16355;BME280;8287;51.644;8.494;2023-04-01T01:53:05;98211.44;;;12.40;78.97
16355;BME280;8287;51.644;8.494;2023-04-01T01:55:33;98209.19;;;12.42;78.73
16355;BME280;8287;51.644;8.494;2023-04-01T01:58:02;98208.84;;;12.47;78.76
16355;BME280;8287;51.644;8.494;2023-04-01T02:00:32;98205.41;;;12.43;78.69
16355;BME280;8287;51.644;8.494;2023-04-01T02:03:00;98206.56;;;12.46;78.47
16355;BME280;8287;51.644;8.494;2023-04-01T02:05:29;98207.72;;;12.48;78.50
16355;BME280;8287;51.644;8.494;2023-04-01T02:08:02;98214.91;;;12.44;78.87
16355;BME280;8287;51.644;8.494;2023-04-01T02:10:35;98211.88;;;12.46;78.59
16355;BME280;8287;51.644;8.494;2023-04-01T02:13:07;98217.91;;;12.43;78.83
16355;BME280;8287;51.644;8.494;2023-04-01T02:15:37;98212.22;;;12.41;78.76
16355;BME280;8287;51.644;8.494;2023-04-01T02:18:08;98212.19;;;12.37;78.81
16355;BME280;8287;51.644;8.494;2023-04-01T02:20:37;98208.75;;;12.33;78.89
16355;BME280;8287;51.644;8.494;2023-04-01T02:23:07;98203.13;;;12.42;79.08
16355;BME280;8287;51.644;8.494;2023-04-01T02:25:36;98204.22;;;12.37;78.73
16355;BME280;8287;51.644;8.494;2023-04-01T02:28:05;98204.34;;;12.51;78.71
16355;BME280;8287;51.644;8.494;2023-04-01T02:30:34;98200.09;;;12.43;78.14
16355;BME280;8287;51.644;8.494;2023-04-01T02:33:03;98208.03;;;12.40;78.32
16355;BME280;8287;51.644;8.494;2023-04-01T02:35:30;98204.34;;;12.51;78.25
16355;BME280;8287;51.644;8.494;2023-04-01T02:38:00;98203.47;;;12.37;78.03
16355;BME280;8287;51.644;8.494;2023-04-01T02:40:29;98197.34;;;12.33;78.16
16355;BME280;8287;51.644;8.494;2023-04-01T02:42:55;98201.91;;;12.36;78.30
16355;BME280;8287;51.644;8.494;2023-04-01T02:45:22;98200.13;;;12.47;78.10
16355;BME280;8287;51.644;8.494;2023-04-01T02:47:48;98207.41;;;12.57;77.98
16355;BME280;8287;51.644;8.494;2023-04-01T02:50:15;98201.28;;;12.53;77.42
16355;BME280;8287;51.644;8.494;2023-04-01T02:52:42;98201.28;;;12.49;77.72
16355;BME280;8287;51.644;8.494;2023-04-01T02:55:09;98197.50;;;12.50;77.58
16355;BME280;8287;51.644;8.494;2023-04-01T02:57:37;98206.16;;;12.44;77.84
16355;BME280;8287;51.644;8.494;2023-04-01T03:00:04;98206.50;;;12.39;78.01
16355;BME280;8287;51.644;8.494;2023-04-01T03:02:36;98199.03;;;12.51;77.35
16355;BME280;8287;51.644;8.494;2023-04-01T03:05:04;98206.94;;;12.44;78.05
16355;BME280;8287;51.644;8.494;2023-04-01T03:07:31;98214.13;;;12.44;77.78
16355;BME280;8287;51.644;8.494;2023-04-01T03:09:57;98208.06;;;12.43;78.61
16355;BME280;8287;51.644;8.494;2023-04-01T03:12:24;98205.84;;;12.52;78.37
16355;BME280;8287;51.644;8.494;2023-04-01T03:14:51;98203.53;;;12.47;78.36
16355;BME280;8287;51.644;8.494;2023-04-01T03:17:18;98210.38;;;12.45;78.87
16355;BME280;8287;51.644;8.494;2023-04-01T03:19:45;98211.50;;;12.47;78.46
16355;BME280;8287;51.644;8.494;2023-04-01T03:22:11;98210.38;;;12.45;78.70
16355;BME280;8287;51.644;8.494;2023-04-01T03:24:38;98213.03;;;12.48;78.93
16355;BME280;8287;51.644;8.494;2023-04-01T03:27:04;98217.16;;;12.42;78.97
16355;BME280;8287;51.644;8.494;2023-04-01T03:29:31;98211.06;;;12.42;79.46
16355;BME280;8287;51.644;8.494;2023-04-01T03:31:59;98214.94;;;12.48;78.80
16355;BME280;8287;51.644;8.494;2023-04-01T03:34:25;98220.19;;;12.41;79.13
16355;BME280;8287;51.644;8.494;2023-04-01T03:36:52;98226.97;;;12.38;79.42
16355;BME280;8287;51.644;8.494;2023-04-01T03:39:19;98224.66;;;12.30;nan
16355;BME280;8287;51.644;8.494;2023-04-01T03:41:46;98219.22;;;12.19;80.17
16355;BME280;8287;51.644;8.494;2023-04-01T03:44:12;98222.00;;;12.30;79.92
16355;BME280;8287;51.644;8.494;2023-04-01T03:46:39;98227.28;;;12.30;79.62
16355;BME280;8287;51.644;8.494;2023-04-01T03:49:07;98228.31;;;12.18;80.95
16355;BME280;8287;51.644;8.494;2023-04-01T03:51:36;98235.53;;;12.21;80.54
16355;BME280;8287;51.644;8.494;2023-04-01T03:54:03;98226.16;;;12.31;80.29
16355;BME280;8287;51.644;8.494;2023-04-01T03:56:30;98227.63;;;12.25;80.66
16355;BME280;8287;51.644;8.494;2023-04-01T03:58:56;98230.66;;;12.27;81.00
16355;BME280;8287;51.644;8.494;2023-04-01T04:01:23;98225.66;;;12.18;81.39
16355;BME280;8287;51.644;8.494;2023-04-01T04:03:50;98225.34;;;12.27;80.75
16355;BME280;8287;51.644;8.494;2023-04-01T04:06:19;98230.91;;;12.11;81.42
16355;BME280;8287;51.644;8.494;2023-04-01T04:08:45;98228.28;;;12.15;81.37
16355;BME280;8287;51.644;8.494;2023-04-01T04:11:13;98224.88;;;12.18;81.42
16355;BME280;8287;51.644;8.494;2023-04-01T04:13:39;98219.41;;;12.00;82.36
16355;BME280;8287;51.644;8.494;2023-04-01T04:16:07;98221.81;;;12.12;82.12
16355;BME280;8287;51.644;8.494;2023-04-01T04:18:34;98223.91;;;11.96;82.42
16355;BME280;8287;51.644;8.494;2023-04-01T04:21:01;98229.41;;;12.14;81.74
16355;BME280;8287;51.644;8.494;2023-04-01T04:23:30;98225.25;;;12.13;81.80
16355;BME280;8287;51.644;8.494;2023-04-01T04:26:00;98219.13;;;12.09;81.60
16355;BME280;8287;51.644;8.494;2023-04-01T04:28:28;98224.81;;;12.07;81.57
16355;BME280;8287;51.644;8.494;2023-04-01T04:30:55;98225.91;;;12.06;81.58
16355;BME280;8287;51.644;8.494;2023-04-01T04:33:22;98228.78;;;11.91;82.08
16355;BME280;8287;51.644;8.494;2023-04-01T04:35:49;98213.59;;;11.88;81.12
16355;BME280;8287;51.644;8.494;2023-04-01T04:38:16;98218.56;;;11.93;81.31
16355;BME280;8287;51.644;8.494;2023-04-01T04:40:44;98217.09;;;11.95;81.98
16355;BME280;8287;51.644;8.494;2023-04-01T04:43:12;98217.47;;;11.97;81.45
16355;BME280;8287;51.644;8.494;2023-04-01T04:45:39;98219.41;;;12.00;81.37
16355;BME280;8287;51.644;8.494;2023-04-01T04:48:07;98217.94;;;12.06;80.69
16355;BME280;8287;51.644;8.494;2023-04-01T04:50:34;98209.47;;;11.94;81.25
16355;BME280;8287;51.644;8.494;2023-04-01T04:53:01;98211.38;;;11.93;81.29
16355;BME280;8287;51.644;8.494;2023-04-01T04:55:27;98209.22;;;12.06;81.18
16355;BME280;8287;51.644;8.494;2023-04-01T04:57:55;98220.59;;;12.03;81.45
16355;BME280;8287;51.644;8.494;2023-04-01T05:00:22;98212.22;;;12.01;81.25
16355;BME280;8287;51.644;8.494;2023-04-01T05:02:48;98220.94;;;12.01;81.36
16355;BME280;8287;51.644;8.494;2023-04-01T05:05:15;98222.47;;;12.02;80.66
16355;BME280;8287;51.644;8.494;2023-04-01T05:07:41;98217.16;;;12.02;81.15
16355;BME280;8287;51.644;8.494;2023-04-01T05:10:09;98221.66;;;11.95;80.10
16355;BME280;8287;51.644;8.494;2023-04-01T05:12:35;98223.09;;;11.89;80.06
16355;BME280;8287;51.644;8.494;2023-04-01T05:15:06;98222.06;;;12.00;79.81
16355;BME280;8287;51.644;8.494;2023-04-01T05:17:33;98226.59;;;12.00;79.50
16355;BME280;8287;51.644;8.494;2023-04-01T05:19:59;98225.47;;;12.01;78.98
16355;BME280;8287;51.644;8.494;2023-04-01T05:22:26;98237.91;;;11.93;79.13
16355;BME280;8287;51.644;8.494;2023-04-01T05:24:52;98228.50;;;11.99;79.32
16355;BME280;8287;51.644;8.494;2023-04-01T05:27:19;98228.16;;;12.04;79.37
16355;BME280;8287;51.644;8.494;2023-04-01T05:29:46;98229.59;;;11.95;79.52
16355;BME280;8287;51.644;8.494;2023-04-01T05:32:14;98241.00;;;11.99;79.71
16355;BME280;8287;51.644;8.494;2023-04-01T05:34:41;98234.94;;;11.98;79.65
16355;BME280;8287;51.644;8.494;2023-04-01T05:37:07;98240.66;;;12.00;80.25
16355;BME280;8287;51.644;8.494;2023-04-01T05:39:36;98252.06;;;12.04;79.95
16355;BME280;8287;51.644;8.494;2023-04-01T05:42:02;98253.22;;;12.07;80.11
16355;BME280;8287;51.644;8.494;2023-04-01T05:44:29;98244.13;;;12.08;80.10
16355;BME280;8287;51.644;8.494;2023-04-01T05:46:56;98240.63;;;11.97;81.03
16355;BME280;8287;51.644;8.494;2023-04-01T05:49:24;98251.94;;;11.94;81.59
16355;BME280;8287;51.644;8.494;2023-04-01T05:51:50;98254.69;;;12.01;80.95
16355;BME280;8287;51.644;8.494;2023-04-01T05:54:17;98253.22;;;12.07;81.28
16355;BME280;8287;51.644;8.494;2023-04-01T05:56:44;98250.19;;;12.05;81.63
16355;BME280;8287;51.644;8.494;2023-04-01T05:59:11;98255.50;;;12.05;81.40
16355;BME280;8287;51.644;8.494;2023-04-01T06:01:38;98261.59;;;12.09;81.03
16355;BME280;8287;51.644;8.494;2023-04-01T06:04:05;98255.94;;;12.10;81.12
16355;BME280;8287;51.644;8.494;2023-04-01T06:06:37;98262.41;;;12.13;81.04
16355;BME280;8287;51.644;8.494;2023-04-01T06:09:13;98265.41;;;12.11;81.54
16355;BME280;8287;51.644;8.494;2023-04-01T06:11:51;98268.38;;;12.03;81.54
16355;BME280;8287;51.644;8.494;2023-04-01T06:14:28;98263.94;;;12.14;80.82
16355;BME280;8287;51.644;8.494;2023-04-01T06:17:07;98266.53;;;12.10;81.60
16355;BME280;8287;51.644;8.494;2023-04-01T06:19:50;98270.75;;;12.15;81.77
16355;BME280;8287;51.644;8.494;2023-04-01T06:25:31;98268.88;;;12.19;81.87
16355;BME280;8287;51.644;8.494;2023-04-01T06:28:13;98276.84;;;12.19;82.24
16355;BME280;8287;51.644;8.494;2023-04-01T06:30:48;98279.97;;;12.28;82.00
16355;BME280;8287;51.644;8.494;2023-04-01T06:33:42;98286.09;;;12.32;82.01
16355;BME280;8287;51.644;8.494;2023-04-01T06:36:43;98285.22;;;12.17;82.86
16355;BME280;8287;51.644;8.494;2023-04-01T06:39:27;98290.88;;;12.16;83.26
16355;BME280;8287;51.644;8.494;2023-04-01T06:42:06;98291.31;;;12.21;83.41
16355;BME280;8287;51.644;8.494;2023-04-01T06:44:44;98286.38;;;12.23;83.49
16355;BME280;8287;51.644;8.494;2023-04-01T06:47:28;98284.78;;;12.15;83.90
16355;BME280;8287;51.644;8.494;2023-04-01T06:50:07;98284.59;;;12.31;83.10
16355;BME280;8287;51.644;8.494;2023-04-01T06:52:43;98288.03;;;12.35;83.05
16355;BME280;8287;51.644;8.494;2023-04-01T06:55:25;98292.97;;;12.36;82.74
16355;BME280;8287;51.644;8.494;2023-04-01T06:57:56;98291.56;;;12.46;82.63
16355;BME280;8287;51.644;8.494;2023-04-01T07:00:29;98280.56;;;12.47;82.27
16355;BME280;8287;51.644;8.494;2023-04-01T07:03:02;98284.81;;;12.55;82.30
16355;BME280;8287;51.644;8.494;2023-04-01T07:05:33;98296.28;;;12.63;81.79
16355;BME280;8287;51.644;8.494;2023-04-01T07:08:02;98304.19;;;12.56;82.20
16355;BME280;8287;51.644;8.494;2023-04-01T07:10:35;98296.72;;;12.68;81.20
16355;BME280;8287;51.644;8.494;2023-04-01T07:13:13;98302.13;;;12.79;81.54
16355;BME280;8287;51.644;8.494;2023-04-01T07:15:43;98294.16;;;12.79;80.18
16355;BME280;8287;51.644;8.494;2023-04-01T07:18:15;98298.34;;;12.80;80.95
16355;BME280;8287;51.644;8.494;2023-04-01T07:20:44;98305.63;;;12.90;80.47
16355;BME280;8287;51.644;8.494;2023-04-01T07:23:17;98299.91;;;12.88;80.90
16355;BME280;8287;51.644;8.494;2023-04-01T07:25:52;98307.16;;;12.91;79.75
16355;BME280;8287;51.644;8.494;2023-04-01T07:28:20;98298.00;;;12.88;78.59
16355;BME280;8287;51.644;8.494;2023-04-01T07:30:52;98306.47;;;12.97;78.94
16355;BME280;8287;51.644;8.494;2023-04-01T07:33:28;98317.84;;;12.94;79.36
16355;BME280;8287;51.644;8.494;2023-04-01T07:36:03;98320.16;;;13.03;78.74
16355;BME280;8287;51.644;8.494;2023-04-01T07:38:40;98315.34;;;13.18;78.89
16355;BME280;8287;51.644;8.494;2023-04-01T07:41:22;98316.88;;;13.19;79.00
16355;BME280;8287;51.644;8.494;2023-04-01T07:43:59;98324.44;;;13.14;79.08
16355;BME280;8287;51.644;8.494;2023-04-01T07:46:39;98327.91;;;13.18;79.55
16355;BME280;8287;51.644;8.494;2023-04-01T07:49:14;98323.09;;;13.34;78.82
16355;BME280;8287;51.644;8.494;2023-04-01T07:51:45;98328.47;;;13.41;79.03
16355;BME280;8287;51.644;8.494;2023-04-01T07:54:22;98340.19;;;13.36;78.03
16355;BME280;8287;51.644;8.494;2023-04-01T07:56:59;98341.31;;;13.35;78.02
16355;BME280;8287;51.644;8.494;2023-04-01T07:59:32;98337.63;;;13.50;77.87
16355;BME280;8287;51.644;8.494;2023-04-01T08:02:07;98344.50;;;13.55;78.07
16355;BME280;8287;51.644;8.494;2023-04-01T08:04:49;98339.13;;;13.48;78.00
16355;BME280;8287;51.644;8.494;2023-04-01T08:07:23;98342.66;;;13.62;76.59
16355;BME280;8287;51.644;8.494;2023-04-01T08:09:56;98344.91;;;13.60;76.88
16355;BME280;8287;51.644;8.494;2023-04-01T08:12:36;98347.97;;;13.66;76.82
16355;BME280;8287;51.644;8.494;2023-04-01T08:15:15;98354.41;;;13.61;76.20
16355;BME280;8287;51.644;8.494;2023-04-01T08:17:56;98361.66;;;13.64;76.40
16355;BME280;8287;51.644;8.494;2023-04-01T08:20:32;98367.81;;;13.75;76.95
16355;BME280;8287;51.644;8.494;2023-04-01T08:23:06;98367.09;;;13.85;76.68
16355;BME280;8287;51.644;8.494;2023-04-01T08:25:39;98359.94;;;13.96;76.53
16355;BME280;8287;51.644;8.494;2023-04-01T08:28:15;98365.22;;;13.89;76.27
16355;BME280;8287;51.644;8.494;2023-04-01T08:30:45;98368.34;;;14.05;76.61
16355;BME280;8287;51.644;8.494;2023-04-01T08:33:17;98370.34;;;14.19;76.44
16355;BME280;8287;51.644;8.494;2023-04-01T08:35:50;98375.28;;;14.20;76.22
16355;BME280;8287;51.644;8.494;2023-04-01T08:38:22;98369.59;;;14.25;75.87
16355;BME280;8287;51.644;8.494;2023-04-01T08:41:14;98377.22;;;14.27;75.11
16355;BME280;8287;51.644;8.494;2023-04-01T08:44:30;98373.78;;;14.26;75.61
16355;BME280;8287;51.644;8.494;2023-04-01T08:47:42;98381.06;;;14.36;75.96
16355;BME280;8287;51.644;8.494;2023-04-01T08:50:23;98381.03;;;14.26;75.54
16355;BME280;8287;51.644;8.494;2023-04-01T08:52:59;98380.31;;;14.39;75.89
16355;BME280;8287;51.644;8.494;2023-04-01T08:55:59;98378.00;;;14.34;75.62
16355;BME280;8287;51.644;8.494;2023-04-01T08:58:46;98385.69;;;14.53;75.89
16355;BME280;8287;51.644;8.494;2023-04-01T09:01:33;98394.47;;;14.61;75.47
16355;BME280;8287;51.644;8.494;2023-04-01T09:04:17;98392.97;;;14.63;75.92
16355;BME280;8287;51.644;8.494;2023-04-01T09:06:59;98396.28;;;14.36;75.21
16355;BME280;8287;51.644;8.494;2023-04-01T09:12:39;98405.03;;;14.40;75.53
16355;BME280;8287;51.644;8.494;2023-04-01T09:15:35;98403.91;;;14.37;74.22
16355;BME280;8287;51.644;8.494;2023-04-01T09:18:22;98403.13;;;14.33;75.31
16355;BME280;8287;51.644;8.494;2023-04-01T09:21:15;98407.69;;;14.36;75.71
16355;BME280;8287;51.644;8.494;2023-04-01T09:24:04;98406.56;;;14.34;76.14
16355;BME280;8287;51.644;8.494;2023-04-01T09:26:56;98403.47;;;14.28;76.99
16355;BME280;8287;51.644;8.494;2023-04-01T09:29:42;98407.69;;;14.36;76.25
16355;BME280;8287;51.644;8.494;2023-04-01T09:32:29;98412.25;;;14.32;76.61
16355;BME280;8287;51.644;8.494;2023-04-01T09:35:10;98410.75;;;14.35;76.42
16355;BME280;8287;51.644;8.494;2023-04-01T09:37:52;98413.84;;;14.44;76.77
16355;BME280;8287;51.644;8.494;2023-04-01T09:40:30;98413.13;;;14.57;77.39
16355;BME280;8287;51.644;8.494;2023-04-01T09:43:22;98418.44;;;14.57;77.14
16355;BME280;8287;51.644;8.494;2023-04-01T09:46:11;98424.53;;;14.61;77.70
16355;BME280;8287;51.644;8.494;2023-04-01T09:51:40;98424.53;;;14.61;75.56
16355;BME280;8287;51.644;8.494;2023-04-01T09:54:17;98425.66;;;14.53;76.69
16355;BME280;8287;51.644;8.494;2023-04-01T09:57:11;98429.03;;;14.43;78.47
16355;BME280;8287;51.644;8.494;2023-04-01T10:00:06;98429.00;;;14.33;78.95
16355;BME280;8287;51.644;8.494;2023-04-01T10:06:11;98450.69;;;14.31;79.05
16355;BME280;8287;51.644;8.494;2023-04-01T10:08:59;98454.50;;;14.30;79.66
16355;BME280;8287;51.644;8.494;2023-04-01T10:11:52;98451.84;;;14.34;79.02
16355;BME280;8287;51.644;8.494;2023-04-01T10:14:37;98448.06;;;14.35;79.99
16355;BME280;8287;51.644;8.494;2023-04-01T10:17:33;98448.81;;;14.39;80.17
16355;BME280;8287;51.644;8.494;2023-04-01T10:20:29;98458.19;;;14.15;82.04
16355;BME280;8287;51.644;8.494;2023-04-01T10:23:11;98461.69;;;14.26;82.83
16355;BME280;8287;51.644;8.494;2023-04-01T10:26:04;98463.97;;;14.21;82.90
16355;BME280;8287;51.644;8.494;2023-04-01T10:28:47;98465.47;;;14.18;82.71
16355;BME280;8287;51.644;8.494;2023-04-01T10:31:42;98473.09;;;14.20;83.01
16355;BME280;8287;51.644;8.494;2023-04-01T10:34:45;98464.38;;;14.26;82.34
16355;BME280;8287;51.644;8.494;2023-04-01T10:37:26;98463.25;;;14.34;82.53
16355;BME280;8287;51.644;8.494;2023-04-01T10:43:26;98457.91;;;14.27;83.74
16355;BME280;8287;51.644;8.494;2023-04-01T10:46:30;98464.41;;;14.33;84.95
16355;BME280;8287;51.644;8.494;2023-04-01T10:49:28;98466.19;;;14.15;85.47
16355;BME280;8287;51.644;8.494;2023-04-01T10:52:33;98469.34;;;14.31;84.58
16355;BME280;8287;51.644;8.494;2023-04-01T10:55:23;98462.22;;;14.53;84.34
16355;BME280;8287;51.644;8.494;2023-04-01T11:01:39;98474.72;;;14.38;84.91
16355;BME280;8287;51.644;8.494;2023-04-01T11:04:34;98463.34;;;14.52;85.16
16355;BME280;8287;51.644;8.494;2023-04-01T11:07:46;98473.50;;;14.25;86.02
16355;BME280;8287;51.644;8.494;2023-04-01T11:14:02;98475.59;;;14.63;85.77
16355;BME280;8287;51.644;8.494;2023-04-01T11:16:58;98463.47;;;14.83;84.14
16355;BME280;8287;51.644;8.494;2023-04-01T11:23:08;98487.03;;;14.67;83.40
16355;BME280;8287;51.644;8.494;2023-04-01T11:25:48;98503.38;;;14.66;82.08
16355;BME280;8287;51.644;8.494;2023-04-01T11:28:33;98490.78;;;14.59;82.97
16355;BME280;8287;51.644;8.494;2023-04-01T11:31:20;98491.16;;;14.58;83.43
16355;BME280;8287;51.644;8.494;2023-04-01T11:33:55;98496.06;;;14.49;83.43
16355;BME280;8287;51.644;8.494;2023-04-01T11:36:35;98496.03;;;14.45;83.80
16355;BME280;8287;51.644;8.494;2023-04-01T11:39:14;98504.41;;;14.40;83.08
16355;BME280;8287;51.644;8.494;2023-04-01T11:41:52;98503.63;;;14.40;83.15
16355;BME280;8287;51.644;8.494;2023-04-01T11:44:23;98499.09;;;14.40;82.42
16355;BME280;8287;51.644;8.494;2023-04-01T11:49:59;98518.13;;;14.46;83.10
16355;BME280;8287;51.644;8.494;2023-04-01T11:52:52;98509.03;;;14.50;82.77
16355;BME280;8287;51.644;8.494;2023-04-01T11:55:38;98513.56;;;14.43;83.55
16355;BME280;8287;51.644;8.494;2023-04-01T11:58:27;98523.38;;;14.32;84.38
16355;BME280;8287;51.644;8.494;2023-04-01T12:01:04;98523.72;;;14.23;83.94
16355;BME280;8287;51.644;8.494;2023-04-01T12:03:46;98528.72;;;14.35;84.47
16355;BME280;8287;51.644;8.494;2023-04-01T12:06:23;98527.31;;;14.52;83.87
16355;BME280;8287;51.644;8.494;2023-04-01T12:08:57;98533.41;;;14.52;82.84
16355;BME280;8287;51.644;8.494;2023-04-01T12:11:33;98545.53;;;14.43;82.79
16355;BME280;8287;51.644;8.494;2023-04-01T12:14:07;98540.88;;;14.33;83.42
16355;BME280;8287;51.644;8.494;2023-04-01T12:16:51;98534.78;;;14.29;83.87
16355;BME280;8287;51.644;8.494;2023-04-01T12:19:28;98539.41;;;14.39;84.70
16355;BME280;8287;51.644;8.494;2023-04-01T12:22:16;98545.53;;;14.39;84.80
16355;BME280;8287;51.644;8.494;2023-04-01T12:24:47;98550.94;;;14.57;84.36
16355;BME280;8287;51.644;8.494;2023-04-01T12:27:32;98549.38;;;14.52;84.43
16355;BME280;8287;51.644;8.494;2023-04-01T12:33:38;98554.69;;;14.49;84.82
16355;BME280;8287;51.644;8.494;2023-04-01T12:36:19;98560.22;;;14.19;87.07
16355;BME280;8287;51.644;8.494;2023-04-01T12:41:48;98563.00;;;14.37;85.63
16355;BME280;8287;51.644;8.494;2023-04-01T12:44:32;98571.91;;;14.58;86.40
16355;BME280;8287;51.644;8.494;2023-04-01T12:47:27;98576.81;;;14.53;87.49
16355;BME280;8287;51.644;8.494;2023-04-01T12:50:16;98575.28;;;14.52;87.13
16355;BME280;8287;51.644;8.494;2023-04-01T12:52:59;98584.88;;;14.63;86.13
16355;BME280;8287;51.644;8.494;2023-04-01T12:55:38;98570.84;;;14.73;85.54
16355;BME280;8287;51.644;8.494;2023-04-01T12:58:49;98583.34;;;14.62;86.88
16355;BME280;8287;51.644;8.494;2023-04-01T13:01:33;98583.75;;;14.64;84.10
16355;BME280;8287;51.644;8.494;2023-04-01T13:04:38;98586.78;;;14.63;84.75
16355;BME280;8287;51.644;8.494;2023-04-01T13:07:32;98590.22;;;14.63;85.00
16355;BME280;8287;51.644;8.494;2023-04-01T13:10:07;98584.75;;;14.42;85.44
16355;BME280;8287;51.644;8.494;2023-04-01T13:12:52;98602.47;;;14.21;85.43
16355;BME280;8287;51.644;8.494;2023-04-01T13:15:30;98589.56;;;14.26;85.31
16355;BME280;8287;51.644;8.494;2023-04-01T13:18:08;98597.19;;;14.28;85.97
16355;BME280;8287;51.644;8.494;2023-04-01T13:20:44;98603.00;;;14.40;86.05
16355;BME280;8287;51.644;8.494;2023-04-01T13:23:27;98604.94;;;14.47;86.25
16355;BME280;8287;51.644;8.494;2023-04-01T13:26:06;98605.97;;;14.32;86.79
16355;BME280;8287;51.644;8.494;2023-04-01T13:28:40;98611.34;;;14.39;85.53
16355;BME280;8287;51.644;8.494;2023-04-01T13:31:20;98611.75;;;14.41;86.32
16355;BME280;8287;51.644;8.494;2023-04-01T13:33:58;98610.84;;;14.23;87.17
16355;BME280;8287;51.644;8.494;2023-04-01T13:36:36;98620.88;;;14.40;86.11
16355;BME280;8287;51.644;8.494;2023-04-01T13:39:15;98611.75;;;14.37;86.80
16355;BME280;8287;51.644;8.494;2023-04-01T13:42:01;98627.66;;;14.27;88.17
16355;BME280;8287;51.644;8.494;2023-04-01T13:44:36;98623.50;;;14.36;88.22
16355;BME280;8287;51.644;8.494;2023-04-01T13:47:17;98620.91;;;14.43;86.84
16355;BME280;8287;51.644;8.494;2023-04-01T13:50:04;98628.19;;;14.46;86.16
16355;BME280;8287;51.644;8.494;2023-04-01T13:55:53;98635.31;;;14.35;86.61
16355;BME280;8287;51.644;8.494;2023-04-01T14:01:19;98634.59;;;14.38;86.83
16355;BME280;8287;51.644;8.494;2023-04-01T14:06:57;98639.06;;;14.27;86.71
16355;BME280;8287;51.644;8.494;2023-04-01T14:12:27;98642.84;;;14.26;88.02
16355;BME280;8287;51.644;8.494;2023-04-01T14:18:01;98651.09;;;14.14;88.69
16355;BME280;8287;51.644;8.494;2023-04-01T14:20:38;98654.91;;;14.13;89.05
16355;BME280;8287;51.644;8.494;2023-04-01T14:23:16;98644.34;;;14.24;89.33
16355;BME280;8287;51.644;8.494;2023-04-01T14:26:06;98655.75;;;14.21;89.20
16355;BME280;8287;51.644;8.494;2023-04-01T14:28:42;98660.16;;;14.06;89.39
16355;BME280;8287;51.644;8.494;2023-04-01T14:31:29;98665.63;;;14.20;89.52
16355;BME280;8287;51.644;8.494;2023-04-01T14:34:09;98658.78;;;14.19;89.26
16355;BME280;8287;51.644;8.494;2023-04-01T14:36:47;98662.00;;;14.39;88.95
16355;BME280;8287;51.644;8.494;2023-04-01T14:39:55;98658.22;;;14.43;87.33
16355;BME280;8287;51.644;8.494;2023-04-01T14:42:53;98667.78;;;14.08;88.35
16355;BME280;8287;51.644;8.494;2023-04-01T14:45:40;98669.47;;;14.23;88.50
16355;BME280;8287;51.644;8.494;2023-04-01T14:48:21;98672.03;;;14.16;86.43
16355;BME280;8287;51.644;8.494;2023-04-01T14:50:54;98675.94;;;14.22;86.53
16355;BME280;8287;51.644;8.494;2023-04-01T14:53:28;98679.81;;;14.31;86.33